createdAt,value
2023-05-15T00:01:37.437Z,14.48
2023-05-15T00:04:06.133Z,14.40
2023-05-15T00:06:33.685Z,14.41
2023-05-15T00:09:01.392Z,14.41
2023-05-15T00:11:29.028Z,14.44
2023-05-15T00:13:56.531Z,14.39
2023-05-15T00:16:24.981Z,14.35
2023-05-15T00:18:52.499Z,14.42
2023-05-15T00:21:19.965Z,14.38
2023-05-15T00:23:47.704Z,14.25
2023-05-15T00:26:15.876Z,14.49
2023-05-15T00:28:43.356Z,14.45
2023-05-15T00:31:13.129Z,14.43
2023-05-15T00:33:40.666Z,14.49
2023-05-15T00:36:08.749Z,14.35
2023-05-15T00:38:36.220Z,14.21
2023-05-15T00:41:07.659Z,14.09
2023-05-15T00:43:36.058Z,14.11
2023-05-15T00:46:04.818Z,13.93
2023-05-15T00:48:33.864Z,13.95
2023-05-15T00:51:01.711Z,14.02
2023-05-15T00:53:29.312Z,13.87
2023-05-15T00:55:59.562Z,13.82
2023-05-15T00:58:28.847Z,13.66
2023-05-15T01:00:56.394Z,13.73
2023-05-15T01:03:24.905Z,13.73
2023-05-15T01:05:52.597Z,13.81
2023-05-15T01:08:29.428Z,13.73
2023-05-15T01:10:59.196Z,13.72
2023-05-15T01:13:26.656Z,13.71
2023-05-15T01:15:55.609Z,13.90
2023-05-15T01:18:23.320Z,13.92
2023-05-15T01:21:06.384Z,13.94
2023-05-15T01:24:27.064Z,13.85
2023-05-15T01:27:38.205Z,13.79
2023-05-15T01:30:26.801Z,13.75
2023-05-15T01:33:12.183Z,13.76
2023-05-15T01:35:56.236Z,13.80
2023-05-15T01:38:46.662Z,13.80
2023-05-15T01:41:45.844Z,13.71
2023-05-15T01:44:45.103Z,13.83
2023-05-15T01:47:22.456Z,13.82
2023-05-15T01:49:53.831Z,13.70
2023-05-15T01:52:31.268Z,13.61
2023-05-15T01:54:59.554Z,13.62
2023-05-15T01:57:29.865Z,13.54
2023-05-15T01:59:59.015Z,13.54
2023-05-15T02:02:28.856Z,13.48
2023-05-15T02:04:57.660Z,13.56
2023-05-15T02:07:26.869Z,13.57
2023-05-15T02:09:54.965Z,13.61
2023-05-15T02:12:26.579Z,13.67
2023-05-15T02:14:55.923Z,13.82
2023-05-15T02:17:23.956Z,13.86
2023-05-15T02:19:51.857Z,13.83
2023-05-15T02:22:19.333Z,13.82
2023-05-15T02:24:46.886Z,13.81
2023-05-15T02:27:23.008Z,13.89
2023-05-15T02:30:29.580Z,13.87
2023-05-15T02:33:15.297Z,13.97
2023-05-15T02:36:10.974Z,13.88
2023-05-15T02:38:53.930Z,13.85
2023-05-15T02:41:23.890Z,13.97
2023-05-15T02:43:55.168Z,14.00
2023-05-15T02:46:25.791Z,13.73
2023-05-15T02:48:54.758Z,13.64
2023-05-15T02:51:22.416Z,13.67
2023-05-15T02:53:49.926Z,13.72
2023-05-15T02:56:17.366Z,13.66
2023-05-15T02:58:45.042Z,13.71
2023-05-15T03:01:12.714Z,13.77
2023-05-15T03:03:40.196Z,13.79
2023-05-15T03:06:07.806Z,13.80
2023-05-15T03:08:36.003Z,13.85
2023-05-15T03:11:05.433Z,13.84
2023-05-15T03:13:32.979Z,13.82
2023-05-15T03:16:00.437Z,13.80
2023-05-15T03:18:28.019Z,13.80
2023-05-15T03:20:56.004Z,13.67
2023-05-15T03:23:23.507Z,13.54
2023-05-15T03:25:50.947Z,13.59
2023-05-15T03:28:18.531Z,13.60
2023-05-15T03:30:46.011Z,13.51
2023-05-15T03:33:13.572Z,13.62
2023-05-15T03:35:41.032Z,13.71
2023-05-15T03:38:08.500Z,13.86
2023-05-15T03:40:38.091Z,13.87
2023-05-15T03:43:06.257Z,13.84
2023-05-15T03:45:37.078Z,13.77
2023-05-15T03:48:05.242Z,13.76
2023-05-15T03:50:33.157Z,13.78
2023-05-15T03:53:00.832Z,13.91
2023-05-15T03:55:28.611Z,14.00
2023-05-15T03:57:56.123Z,14.08
2023-05-15T04:00:23.986Z,14.02
2023-05-15T04:02:52.195Z,14.04
2023-05-15T04:05:21.722Z,14.07
2023-05-15T04:07:49.504Z,14.07
2023-05-15T04:10:17.037Z,14.17
2023-05-15T04:12:44.483Z,14.19
2023-05-15T04:15:19.013Z,14.32
2023-05-15T04:17:48.640Z,14.31
2023-05-15T04:20:20.359Z,14.27
2023-05-15T04:22:52.568Z,14.18
2023-05-15T04:25:20.606Z,14.25
2023-05-15T04:27:49.309Z,14.38
2023-05-15T04:30:17.078Z,14.41
2023-05-15T04:32:44.612Z,14.33
2023-05-15T04:35:13.641Z,14.28
2023-05-15T04:37:42.666Z,14.33
2023-05-15T04:40:10.809Z,14.37
2023-05-15T04:42:39.512Z,14.28
2023-05-15T04:45:10.253Z,14.32
2023-05-15T04:47:37.900Z,14.17
2023-05-15T04:50:06.736Z,14.27
2023-05-15T04:52:34.385Z,14.29
2023-05-15T04:55:02.041Z,14.39
2023-05-15T04:57:29.591Z,14.41
2023-05-15T04:59:58.296Z,14.43
2023-05-15T05:02:25.910Z,14.63
2023-05-15T05:04:53.469Z,14.64
2023-05-15T05:07:21.062Z,14.51
2023-05-15T05:09:48.486Z,14.61
2023-05-15T05:12:15.944Z,14.65
2023-05-15T05:14:44.713Z,14.63
2023-05-15T05:17:12.344Z,14.84
2023-05-15T05:19:39.827Z,14.86
2023-05-15T05:22:07.718Z,14.97
2023-05-15T05:24:37.484Z,15.08
2023-05-15T05:27:05.725Z,15.08
2023-05-15T05:29:33.341Z,15.10
2023-05-15T05:32:01.333Z,15.19
2023-05-15T05:34:29.226Z,15.25
2023-05-15T05:36:56.673Z,15.35
2023-05-15T05:39:24.157Z,15.49
2023-05-15T05:41:51.682Z,15.51
2023-05-15T05:44:19.263Z,15.51
2023-05-15T05:46:46.750Z,15.50
2023-05-15T05:49:14.230Z,15.50
2023-05-15T05:51:41.790Z,15.72
2023-05-15T05:54:09.288Z,15.69
2023-05-15T05:56:37.236Z,15.77
2023-05-15T05:59:08.493Z,15.77
2023-05-15T06:01:36.312Z,15.94
2023-05-15T06:04:03.910Z,15.89
2023-05-15T06:06:31.432Z,15.82
2023-05-15T06:08:58.962Z,15.92
2023-05-15T06:11:27.137Z,15.96
2023-05-15T06:13:54.575Z,15.96
2023-05-15T06:16:22.595Z,16.02
2023-05-15T06:18:50.166Z,16.49
2023-05-15T06:21:17.636Z,16.31
2023-05-15T06:23:45.158Z,16.64
2023-05-15T06:26:12.686Z,16.52
2023-05-15T06:28:40.149Z,16.45
2023-05-15T06:31:07.702Z,16.74
2023-05-15T06:33:35.237Z,16.70
2023-05-15T06:36:02.892Z,16.77
2023-05-15T06:38:30.414Z,16.68
2023-05-15T06:40:57.821Z,16.83
2023-05-15T06:43:25.392Z,16.97
2023-05-15T06:45:52.982Z,16.80
2023-05-15T06:48:20.591Z,16.70
2023-05-15T06:50:48.022Z,16.84
2023-05-15T06:53:15.434Z,16.77
2023-05-15T06:55:42.977Z,17.03
2023-05-15T06:58:10.426Z,17.28
2023-05-15T07:00:37.887Z,17.31
2023-05-15T07:03:06.307Z,16.97
2023-05-15T07:05:33.799Z,17.00
2023-05-15T07:08:01.291Z,16.80
2023-05-15T07:10:28.841Z,17.07
2023-05-15T07:12:56.392Z,17.41
2023-05-15T07:15:23.830Z,17.28
2023-05-15T07:17:51.741Z,17.43
2023-05-15T07:20:19.279Z,17.52
2023-05-15T07:22:55.829Z,17.36
2023-05-15T07:25:25.587Z,17.17
2023-05-15T07:27:56.277Z,17.25
2023-05-15T07:30:24.226Z,17.34
2023-05-15T07:32:51.970Z,17.31
2023-05-15T07:35:19.687Z,17.44
2023-05-15T07:37:47.193Z,17.72
2023-05-15T07:40:15.712Z,17.65
2023-05-15T07:42:47.079Z,18.04
2023-05-15T07:45:14.776Z,18.23
2023-05-15T07:47:47.384Z,17.70
2023-05-15T07:50:16.017Z,17.58
2023-05-15T07:52:43.847Z,17.59
2023-05-15T07:55:12.625Z,17.73
2023-05-15T07:57:40.199Z,17.80
2023-05-15T08:00:13.709Z,17.86
2023-05-15T08:02:42.714Z,17.94
2023-05-15T08:05:10.490Z,18.12
2023-05-15T08:07:38.009Z,18.31
2023-05-15T08:10:06.965Z,18.46
2023-05-15T08:12:34.716Z,18.50
2023-05-15T08:15:02.187Z,18.56
2023-05-15T08:17:29.679Z,18.69
2023-05-15T08:19:57.463Z,18.92
2023-05-15T08:22:25.074Z,19.05
2023-05-15T08:24:52.742Z,19.20
2023-05-15T08:27:20.559Z,19.38
2023-05-15T08:29:49.345Z,19.38
2023-05-15T08:32:16.804Z,19.53
2023-05-15T08:34:44.568Z,19.51
2023-05-15T08:37:12.101Z,19.40
2023-05-15T08:39:39.733Z,19.47
2023-05-15T08:42:27.616Z,19.72
2023-05-15T08:44:56.459Z,19.69
2023-05-15T08:47:25.506Z,19.82
2023-05-15T08:50:12.727Z,19.91
2023-05-15T08:52:42.952Z,19.87
2023-05-15T08:55:11.329Z,19.85
2023-05-15T08:57:39.487Z,19.76
2023-05-15T09:00:09.314Z,19.97
2023-05-15T09:02:38.728Z,20.04
2023-05-15T09:05:07.417Z,20.20
2023-05-15T09:07:35.915Z,20.09
2023-05-15T09:10:04.497Z,20.03
2023-05-15T09:12:35.000Z,20.16
2023-05-15T09:15:11.827Z,20.33
2023-05-15T09:17:40.460Z,20.21
2023-05-15T09:20:11.677Z,20.25
2023-05-15T09:22:39.093Z,20.37
2023-05-15T09:25:06.953Z,20.22
2023-05-15T09:27:43.713Z,20.11
2023-05-15T09:30:11.896Z,20.15
2023-05-15T09:32:39.615Z,20.25
2023-05-15T09:35:32.938Z,20.76
2023-05-15T09:38:08.250Z,20.83
2023-05-15T09:40:35.827Z,20.21
2023-05-15T09:43:03.331Z,20.10
2023-05-15T09:45:31.504Z,19.99
2023-05-15T09:48:06.750Z,19.99
2023-05-15T09:50:37.859Z,20.47
2023-05-15T09:53:06.566Z,20.50
2023-05-15T09:55:37.707Z,20.41
2023-05-15T09:58:11.151Z,20.06
2023-05-15T10:00:48.768Z,20.17
2023-05-15T10:03:22.480Z,20.17
2023-05-15T10:05:50.205Z,19.98
2023-05-15T10:08:30.312Z,19.91
2023-05-15T10:11:01.613Z,20.07
2023-05-15T10:13:32.897Z,19.76
2023-05-15T10:16:03.720Z,19.58
2023-05-15T10:18:34.583Z,19.75
2023-05-15T10:21:04.319Z,20.10
2023-05-15T10:23:34.184Z,20.03
2023-05-15T10:26:16.232Z,20.56
2023-05-15T10:28:45.853Z,20.75
2023-05-15T10:31:14.296Z,20.72
2023-05-15T10:33:42.417Z,20.88
2023-05-15T10:36:10.995Z,20.78
2023-05-15T10:38:40.274Z,20.68
2023-05-15T10:41:17.592Z,21.03
2023-05-15T10:43:46.533Z,20.84
2023-05-15T10:46:16.074Z,20.91
2023-05-15T10:48:43.665Z,20.82
2023-05-15T10:51:19.543Z,21.07
2023-05-15T10:53:47.443Z,21.22
2023-05-15T10:56:17.185Z,20.89
2023-05-15T10:58:50.138Z,20.96
2023-05-15T11:01:32.851Z,21.00
2023-05-15T11:04:17.319Z,21.33
2023-05-15T11:06:50.178Z,21.52
2023-05-15T11:09:33.627Z,21.70
2023-05-15T11:12:04.091Z,21.37
2023-05-15T11:14:44.021Z,21.55
2023-05-15T11:17:15.224Z,21.54
2023-05-15T11:19:52.058Z,20.86
2023-05-15T11:22:19.549Z,20.94
2023-05-15T11:25:02.483Z,20.99
2023-05-15T11:27:42.737Z,20.65
2023-05-15T11:30:18.489Z,20.74
2023-05-15T11:32:54.526Z,20.45
2023-05-15T11:35:45.927Z,20.48
2023-05-15T11:38:17.033Z,20.47
2023-05-15T11:41:02.807Z,20.95
2023-05-15T11:43:56.724Z,20.95
2023-05-15T11:46:25.066Z,20.74
2023-05-15T11:48:52.769Z,20.78
2023-05-15T11:51:24.881Z,20.67
2023-05-15T11:53:55.753Z,20.49
2023-05-15T11:56:28.508Z,20.55
2023-05-15T11:58:59.128Z,20.46
2023-05-15T12:01:27.197Z,20.71
2023-05-15T12:03:55.236Z,20.42
2023-05-15T12:06:23.156Z,20.16
2023-05-15T12:08:53.150Z,20.05
2023-05-15T12:11:25.373Z,20.40
2023-05-15T12:13:54.334Z,20.37
2023-05-15T12:16:28.896Z,20.59
2023-05-15T12:18:59.703Z,20.49
2023-05-15T12:21:29.300Z,20.51
2023-05-15T12:26:29.792Z,20.92
2023-05-15T12:28:57.602Z,21.02
2023-05-15T12:31:25.400Z,20.48
2023-05-15T12:33:53.235Z,20.58
2023-05-15T12:36:23.226Z,21.04
2023-05-15T12:38:51.346Z,20.75
2023-05-15T12:41:20.411Z,21.44
2023-05-15T12:43:49.037Z,21.34
2023-05-15T12:46:16.745Z,20.76
2023-05-15T12:48:44.699Z,20.51
2023-05-15T12:51:12.200Z,20.64
2023-05-15T12:53:41.705Z,20.66
2023-05-15T12:56:10.339Z,20.81
2023-05-15T12:58:38.343Z,20.46
2023-05-15T13:01:06.308Z,20.31
2023-05-15T13:03:34.849Z,20.58
2023-05-15T13:06:03.878Z,20.58
2023-05-15T13:08:31.611Z,20.82
2023-05-15T13:11:01.151Z,20.55
2023-05-15T13:14:01.008Z,20.97
2023-05-15T13:16:30.008Z,20.92
2023-05-15T13:18:58.729Z,20.62
2023-05-15T13:21:26.389Z,20.92
2023-05-15T13:23:53.922Z,20.73
2023-05-15T13:26:21.779Z,20.64
2023-05-15T13:28:49.331Z,20.70
2023-05-15T13:31:17.365Z,20.69
2023-05-15T13:33:44.809Z,21.01
2023-05-15T13:36:12.632Z,21.34
2023-05-15T13:38:40.482Z,21.67
2023-05-15T13:41:09.169Z,21.54
2023-05-15T13:43:36.709Z,21.24
2023-05-15T13:46:04.760Z,20.95
2023-05-15T13:48:32.812Z,20.82
2023-05-15T13:51:00.756Z,20.74
2023-05-15T13:53:28.156Z,20.74
2023-05-15T13:55:55.650Z,20.75
2023-05-15T13:58:26.548Z,20.76
2023-05-15T14:00:54.308Z,20.82
2023-05-15T14:03:21.877Z,20.87
2023-05-15T14:05:49.391Z,20.83
2023-05-15T14:08:17.332Z,20.80
2023-05-15T14:10:45.810Z,20.97
2023-05-15T14:13:14.010Z,20.88
2023-05-15T14:15:41.444Z,20.87
2023-05-15T14:18:08.984Z,20.78
2023-05-15T14:20:39.352Z,20.77
2023-05-15T14:23:06.890Z,21.13
2023-05-15T14:25:34.367Z,20.89
2023-05-15T14:28:02.390Z,21.03
2023-05-15T14:30:29.949Z,21.06
2023-05-15T14:32:57.470Z,21.19
2023-05-15T14:35:24.999Z,21.21
2023-05-15T14:37:52.799Z,20.97
2023-05-15T14:40:20.380Z,20.83
2023-05-15T14:42:47.861Z,20.94
2023-05-15T14:45:15.360Z,20.88
2023-05-15T14:47:43.128Z,20.81
2023-05-15T14:50:10.928Z,20.75
2023-05-15T14:52:39.019Z,20.56
2023-05-15T14:55:10.027Z,20.61
2023-05-15T14:57:38.775Z,20.57
2023-05-15T15:00:08.229Z,20.50
2023-05-15T15:02:35.964Z,20.59
2023-05-15T15:05:04.640Z,20.68
2023-05-15T15:07:32.243Z,20.70
2023-05-15T15:09:59.655Z,20.66
2023-05-15T15:12:28.104Z,20.57
2023-05-15T15:14:55.590Z,20.52
2023-05-15T15:17:23.086Z,20.52
2023-05-15T15:19:51.073Z,20.55
2023-05-15T15:22:18.606Z,20.61
2023-05-15T15:24:46.038Z,20.54
2023-05-15T15:27:13.589Z,20.47
2023-05-15T15:29:40.998Z,20.54
2023-05-15T15:32:08.515Z,20.86
2023-05-15T15:34:36.031Z,20.63
2023-05-15T15:37:03.575Z,20.12
2023-05-15T15:39:33.722Z,19.96
2023-05-15T15:42:02.351Z,19.86
2023-05-15T15:44:51.822Z,19.76
2023-05-15T15:47:19.444Z,19.60
2023-05-15T15:49:47.235Z,19.56
2023-05-15T15:52:17.354Z,19.48
2023-05-15T15:54:47.584Z,19.31
2023-05-15T15:57:19.244Z,19.26
2023-05-15T15:59:49.725Z,19.54
2023-05-15T16:02:19.149Z,19.32
2023-05-15T16:04:46.851Z,19.15
2023-05-15T16:07:14.378Z,18.99
2023-05-15T16:09:41.878Z,19.08
2023-05-15T16:12:09.618Z,18.95
2023-05-15T16:14:37.097Z,18.89
2023-05-15T16:17:04.827Z,19.08
2023-05-15T16:19:32.489Z,18.93
2023-05-15T16:21:59.948Z,19.22
2023-05-15T16:24:27.396Z,19.01
2023-05-15T16:26:55.482Z,19.12
2023-05-15T16:29:23.838Z,19.02
2023-05-15T16:31:51.542Z,19.05
2023-05-15T16:34:19.383Z,19.02
2023-05-15T16:36:46.896Z,18.91
2023-05-15T16:39:14.429Z,18.89
2023-05-15T16:41:42.012Z,18.83
2023-05-15T16:44:10.908Z,18.72
2023-05-15T16:46:39.170Z,18.66
2023-05-15T16:49:07.266Z,18.64
2023-05-15T16:51:35.514Z,18.65
2023-05-15T16:54:03.191Z,18.43
2023-05-15T16:56:30.633Z,18.54
2023-05-15T16:58:59.086Z,18.52
2023-05-15T17:01:29.238Z,18.46
2023-05-15T17:03:59.448Z,18.41
2023-05-15T17:06:27.034Z,18.41
2023-05-15T17:08:55.563Z,18.68
2023-05-15T17:11:23.363Z,18.85
2023-05-15T17:13:50.929Z,18.89
2023-05-15T17:16:19.784Z,18.66
2023-05-15T17:18:47.470Z,18.71
2023-05-15T17:21:18.307Z,18.47
2023-05-15T17:23:47.324Z,18.36
2023-05-15T17:26:15.818Z,18.37
2023-05-15T17:28:43.375Z,18.33
2023-05-15T17:31:11.218Z,18.14
2023-05-15T17:33:58.853Z,18.02
2023-05-15T17:36:28.741Z,17.86
2023-05-15T17:39:00.626Z,17.83
2023-05-15T17:41:28.482Z,17.73
2023-05-15T17:43:56.545Z,17.95
2023-05-15T17:46:24.049Z,18.17
2023-05-15T17:48:53.320Z,17.95
2023-05-15T17:51:21.012Z,17.80
2023-05-15T17:53:51.375Z,17.98
2023-05-15T17:56:21.793Z,17.97
2023-05-15T17:58:49.290Z,17.71
2023-05-15T18:01:17.534Z,17.71
2023-05-15T18:03:49.359Z,17.66
2023-05-15T18:06:17.107Z,17.43
2023-05-15T18:08:45.337Z,17.32
2023-05-15T18:11:21.938Z,17.33
2023-05-15T18:13:53.090Z,17.33
2023-05-15T18:16:25.758Z,17.35
2023-05-15T18:18:55.489Z,17.30
2023-05-15T18:21:26.125Z,17.25
2023-05-15T18:23:54.344Z,17.29
2023-05-15T18:26:26.209Z,17.26
2023-05-15T18:28:55.942Z,17.47
2023-05-15T18:31:25.551Z,17.39
2023-05-15T18:34:00.614Z,17.33
2023-05-15T18:39:21.874Z,17.15
2023-05-15T18:41:50.400Z,17.21
2023-05-15T18:44:21.555Z,17.14
2023-05-15T18:46:49.888Z,17.01
2023-05-15T18:49:18.401Z,17.00
2023-05-15T18:51:49.252Z,16.98
2023-05-15T18:54:17.838Z,17.06
2023-05-15T18:56:48.017Z,16.89
2023-05-15T18:59:15.681Z,16.83
2023-05-15T19:01:43.358Z,16.86
2023-05-15T19:04:14.763Z,16.80
2023-05-15T19:06:50.427Z,16.69
2023-05-15T19:09:20.806Z,16.82
2023-05-15T19:11:51.811Z,16.77
2023-05-15T19:14:21.172Z,16.77
2023-05-15T19:16:48.827Z,16.83
2023-05-15T19:19:18.226Z,16.78
2023-05-15T19:21:47.530Z,16.71
2023-05-15T19:24:15.565Z,16.58
2023-05-15T19:26:44.505Z,16.62
2023-05-15T19:29:13.292Z,16.55
2023-05-15T19:31:41.078Z,16.54
2023-05-15T19:34:08.781Z,16.65
2023-05-15T19:36:39.551Z,16.70
2023-05-15T19:39:09.862Z,16.66
2023-05-15T19:41:39.499Z,16.77
2023-05-15T19:44:08.542Z,16.91
2023-05-15T19:46:36.897Z,16.98
2023-05-15T19:49:11.228Z,16.94
2023-05-15T19:51:41.279Z,16.85
2023-05-15T19:54:12.676Z,16.78
2023-05-15T19:56:49.900Z,16.68
2023-05-15T19:59:20.151Z,16.65
2023-05-15T20:01:47.710Z,16.71
2023-05-15T20:04:15.496Z,16.70
2023-05-15T20:06:43.268Z,16.71
2023-05-15T20:09:10.924Z,16.81
2023-05-15T20:11:40.334Z,16.71
2023-05-15T20:14:09.203Z,16.73
2023-05-15T20:16:37.149Z,16.63
2023-05-15T20:19:06.067Z,16.65
2023-05-15T20:21:33.899Z,16.62
2023-05-15T20:24:01.772Z,16.59
2023-05-15T20:26:29.392Z,16.62
2023-05-15T20:28:56.811Z,16.59
2023-05-15T20:31:25.616Z,16.71
2023-05-15T20:33:53.160Z,16.71
2023-05-15T20:36:25.238Z,16.69
2023-05-15T20:38:53.421Z,16.72
2023-05-15T20:41:23.185Z,16.69
2023-05-15T20:43:51.433Z,16.62
2023-05-15T20:46:19.211Z,16.51
2023-05-15T20:48:46.855Z,16.55
2023-05-15T20:51:14.333Z,16.51
2023-05-15T20:53:42.420Z,16.50
2023-05-15T20:56:09.941Z,16.42
2023-05-15T20:58:37.730Z,16.49
2023-05-15T21:01:05.804Z,16.52
2023-05-15T21:03:33.308Z,16.33
2023-05-15T21:06:02.319Z,16.21
2023-05-15T21:08:30.075Z,16.24
2023-05-15T21:10:59.701Z,16.20
2023-05-15T21:13:28.063Z,16.25
2023-05-15T21:15:55.621Z,16.28
2023-05-15T21:18:23.761Z,16.35
2023-05-15T21:20:51.761Z,16.29
2023-05-15T21:23:21.459Z,16.29
2023-05-15T21:25:49.077Z,16.20
2023-05-15T21:28:17.097Z,16.19
2023-05-15T21:30:44.662Z,16.17
2023-05-15T21:33:12.240Z,16.06
2023-05-15T21:35:40.967Z,16.13
2023-05-15T21:38:08.504Z,16.13
2023-05-15T21:40:36.359Z,16.13
2023-05-15T21:43:03.802Z,16.13
2023-05-15T21:45:31.343Z,16.11
2023-05-15T21:47:58.967Z,16.17
2023-05-15T21:50:27.590Z,16.20
2023-05-15T21:52:55.285Z,16.30
2023-05-15T21:55:23.904Z,16.35
2023-05-15T21:57:51.372Z,16.59
2023-05-15T22:00:19.235Z,16.54
2023-05-15T22:02:46.746Z,16.39
2023-05-15T22:05:14.754Z,16.43
2023-05-15T22:07:42.265Z,16.48
2023-05-15T22:10:14.083Z,16.38
2023-05-15T22:12:41.667Z,16.33
2023-05-15T22:15:10.547Z,16.38
2023-05-15T22:17:38.093Z,16.38
2023-05-15T22:20:13.260Z,16.32
2023-05-15T22:22:43.231Z,16.28
2023-05-15T22:25:10.881Z,16.38
2023-05-15T22:27:38.815Z,16.36
2023-05-15T22:30:07.403Z,16.24
2023-05-15T22:32:35.217Z,16.24
2023-05-15T22:35:03.638Z,16.27
2023-05-15T22:37:31.569Z,16.29
2023-05-15T22:39:59.084Z,16.21
2023-05-15T22:42:28.141Z,16.07
2023-05-15T22:44:57.570Z,16.02
2023-05-15T22:47:26.171Z,16.01
2023-05-15T22:49:54.079Z,15.99
2023-05-15T22:52:21.981Z,16.06
2023-05-15T22:54:49.456Z,16.07
2023-05-15T22:57:16.916Z,16.16
2023-05-15T22:59:45.444Z,16.24
2023-05-15T23:02:12.938Z,16.21
2023-05-15T23:04:40.648Z,16.28
2023-05-15T23:07:08.182Z,16.21
2023-05-15T23:09:36.250Z,16.18
2023-05-15T23:12:04.456Z,16.14
2023-05-15T23:14:32.497Z,16.12
2023-05-15T23:16:59.985Z,16.09
2023-05-15T23:19:27.561Z,16.03
2023-05-15T23:21:55.768Z,16.05
2023-05-15T23:24:23.269Z,15.97
2023-05-15T23:26:51.198Z,15.92
2023-05-15T23:29:18.672Z,15.83
2023-05-15T23:31:46.253Z,15.82
2023-05-15T23:34:13.776Z,15.78
2023-05-15T23:36:41.310Z,15.84
2023-05-15T23:39:09.412Z,15.84
2023-05-15T23:41:36.935Z,15.78
2023-05-15T23:44:04.744Z,15.70
2023-05-15T23:46:32.374Z,15.65
2023-05-15T23:48:59.895Z,15.72
2023-05-15T23:51:27.397Z,15.71
2023-05-15T23:53:54.870Z,15.74
2023-05-15T23:56:23.807Z,15.71
2023-05-15T23:58:51.269Z,15.57
